createdAt,value
2022-10-17T00:01:02.011Z,101010.13
2022-10-17T00:03:36.083Z,101007.66
2022-10-17T00:06:13.914Z,101003.50
2022-10-17T00:08:42.286Z,101014.59
2022-10-17T00:11:20.337Z,101013.72
2022-10-17T00:13:53.950Z,101020.56
2022-10-17T00:16:30.428Z,101020.47
2022-10-17T00:18:57.603Z,101011.78
2022-10-17T00:21:26.281Z,101011.69
2022-10-17T00:23:55.144Z,101023.25
2022-10-17T00:26:22.883Z,101032.56
2022-10-17T00:28:51.390Z,101020.56
2022-10-17T00:31:20.855Z,101021.94
2022-10-17T00:33:48.263Z,101009.63
2022-10-17T00:36:19.307Z,101009.50
2022-10-17T00:38:50.088Z,101019.31
2022-10-17T00:41:20.791Z,101014.16
2022-10-17T00:44:05.119Z,101021.06
2022-10-17T00:46:42.965Z,101018.28
2022-10-17T00:49:12.531Z,101031.03
2022-10-17T00:51:50.881Z,101031.69
2022-10-17T00:54:23.208Z,101032.09
2022-10-17T00:56:52.135Z,101032.41
2022-10-17T00:59:22.008Z,101028.34
2022-10-17T01:01:57.029Z,101038.56
2022-10-17T01:04:24.165Z,101039.72
2022-10-17T01:06:51.518Z,101044.75
2022-10-17T01:09:18.927Z,101030.44
2022-10-17T01:12:07.741Z,101055.78
2022-10-17T01:14:56.465Z,101044.53
2022-10-17T01:17:33.835Z,101039.50
2022-10-17T01:20:25.815Z,101049.47
2022-10-17T01:23:14.519Z,101063.13
2022-10-17T01:25:57.445Z,101057.09
2022-10-17T01:28:48.555Z,101066.34
2022-10-17T01:31:19.340Z,101066.00
2022-10-17T01:33:54.939Z,101080.00
2022-10-17T01:36:31.053Z,101066.19
2022-10-17T01:39:42.635Z,101059.69
2022-10-17T01:42:27.263Z,101056.50
2022-10-17T01:45:04.197Z,101057.94
2022-10-17T01:47:33.724Z,101060.41
2022-10-17T01:50:11.686Z,101073.06
2022-10-17T01:52:43.832Z,101082.91
2022-10-17T01:55:16.801Z,101084.53
2022-10-17T01:57:50.190Z,101080.09
2022-10-17T02:00:22.318Z,101072.69
2022-10-17T02:03:00.467Z,101089.59
2022-10-17T02:05:35.368Z,101100.47
2022-10-17T02:08:02.644Z,101098.75
2022-10-17T02:10:52.187Z,101094.13
2022-10-17T02:13:38.216Z,101104.53
2022-10-17T02:16:40.600Z,101112.84
2022-10-17T02:19:22.857Z,101102.69
2022-10-17T02:22:04.549Z,101082.16
2022-10-17T02:24:57.767Z,101085.59
2022-10-17T02:27:48.932Z,101091.84
2022-10-17T02:30:29.380Z,101109.31
2022-10-17T02:33:03.095Z,101113.56
2022-10-17T02:35:35.414Z,101097.47
2022-10-17T02:38:05.346Z,101104.41
2022-10-17T02:40:33.071Z,101108.78
2022-10-17T02:43:03.516Z,101116.13
2022-10-17T02:45:35.971Z,101106.84
2022-10-17T02:48:19.518Z,101120.22
2022-10-17T02:51:28.924Z,101124.44
2022-10-17T02:54:11.452Z,101126.91
2022-10-17T02:56:57.789Z,101139.97
2022-10-17T02:59:27.459Z,101132.50
2022-10-17T03:01:54.876Z,101136.66
2022-10-17T03:04:22.229Z,101142.28
2022-10-17T03:06:49.796Z,101147.44
2022-10-17T03:09:19.044Z,101138.50
2022-10-17T03:11:46.248Z,101135.31
2022-10-17T03:14:13.756Z,101126.53
2022-10-17T03:16:41.376Z,101148.53
2022-10-17T03:19:08.950Z,101151.34
2022-10-17T03:21:37.949Z,101159.31
2022-10-17T03:24:07.203Z,101159.78
2022-10-17T03:26:34.744Z,101153.66
2022-10-17T03:29:03.640Z,101155.50
2022-10-17T03:31:31.542Z,101145.97
2022-10-17T03:34:02.090Z,101139.25
2022-10-17T03:36:29.499Z,101141.56
2022-10-17T03:38:57.378Z,101143.97
2022-10-17T03:41:24.540Z,101135.41
2022-10-17T03:43:54.154Z,101136.91
2022-10-17T03:46:21.877Z,101141.88
2022-10-17T03:48:49.488Z,101166.63
2022-10-17T03:51:16.855Z,101160.38
2022-10-17T03:53:49.935Z,101154.66
2022-10-17T03:56:22.816Z,101138.09
2022-10-17T03:59:14.747Z,101149.47
2022-10-17T04:01:44.800Z,101155.56
2022-10-17T04:04:13.272Z,101171.59
2022-10-17T04:06:40.575Z,101175.00
2022-10-17T04:09:07.949Z,101189.16
2022-10-17T04:11:44.789Z,101189.94
2022-10-17T04:14:13.113Z,101192.63
2022-10-17T04:16:40.479Z,101180.63
2022-10-17T04:19:14.109Z,101195.84
2022-10-17T04:21:46.770Z,101179.78
2022-10-17T04:24:15.226Z,101180.75
2022-10-17T04:26:51.163Z,101169.13
2022-10-17T04:29:24.725Z,101185.50
2022-10-17T04:31:57.831Z,101174.28
2022-10-17T04:34:36.660Z,101168.16
2022-10-17T04:37:06.462Z,101177.81
2022-10-17T04:39:34.730Z,101186.69
2022-10-17T04:42:04.568Z,101183.38
2022-10-17T04:44:33.716Z,101183.50
2022-10-17T04:47:01.675Z,101195.03
2022-10-17T04:49:29.135Z,101190.13
2022-10-17T04:52:02.411Z,101200.63
2022-10-17T04:54:38.824Z,101198.94
2022-10-17T04:57:09.251Z,101197.22
2022-10-17T04:59:37.468Z,101198.31
2022-10-17T05:02:34.576Z,101204.66
2022-10-17T05:05:03.861Z,101213.50
2022-10-17T05:07:31.599Z,101210.66
2022-10-17T05:10:02.830Z,101221.41
2022-10-17T05:12:31.854Z,101207.72
2022-10-17T05:14:59.714Z,101211.91
2022-10-17T05:17:30.362Z,101208.84
2022-10-17T05:19:57.792Z,101197.38
2022-10-17T05:22:24.990Z,101202.25
2022-10-17T05:24:52.543Z,101213.06
2022-10-17T05:27:19.736Z,101212.34
2022-10-17T05:29:47.095Z,101221.16
2022-10-17T05:32:20.629Z,101222.47
2022-10-17T05:34:48.593Z,101210.00
2022-10-17T05:37:15.963Z,101218.69
2022-10-17T05:39:50.695Z,101221.38
2022-10-17T05:42:18.726Z,101230.03
2022-10-17T05:44:47.078Z,101226.50
2022-10-17T05:47:16.174Z,101224.19
2022-10-17T05:49:48.724Z,101229.56
2022-10-17T05:52:21.949Z,101232.94
2022-10-17T05:55:06.956Z,101234.91
2022-10-17T05:57:34.507Z,101236.56
2022-10-17T06:00:04.945Z,101247.34
2022-10-17T06:02:42.761Z,101238.97
2022-10-17T06:05:12.926Z,101249.00
2022-10-17T06:07:40.572Z,101224.47
2022-10-17T06:10:09.048Z,101231.81
2022-10-17T06:12:36.529Z,101218.63
2022-10-17T06:15:04.780Z,101240.63
2022-10-17T06:17:32.045Z,101237.28
2022-10-17T06:20:00.079Z,101250.97
2022-10-17T06:22:27.649Z,101243.53
2022-10-17T06:24:56.773Z,101255.72
2022-10-17T06:27:24.226Z,101277.03
2022-10-17T06:29:51.650Z,101283.69
2022-10-17T06:32:18.950Z,101279.06
2022-10-17T06:34:47.555Z,101278.00
2022-10-17T06:37:15.678Z,101272.03
2022-10-17T06:39:43.931Z,101289.66
2022-10-17T06:42:13.657Z,101306.34
2022-10-17T06:44:51.347Z,101295.06
2022-10-17T06:47:33.177Z,101300.78
2022-10-17T06:50:07.129Z,101300.66
2022-10-17T06:52:57.436Z,101295.13
2022-10-17T06:55:43.543Z,101298.00
2022-10-17T06:58:24.011Z,101294.84
2022-10-17T07:01:10.818Z,101291.06
2022-10-17T07:03:39.376Z,101298.72
2022-10-17T07:06:07.732Z,101295.25
2022-10-17T07:08:34.926Z,101297.84
2022-10-17T07:11:15.463Z,101306.00
2022-10-17T07:13:43.029Z,101305.13
2022-10-17T07:16:10.969Z,101297.19
2022-10-17T07:18:40.183Z,101288.75
2022-10-17T07:21:08.890Z,101299.16
2022-10-17T07:23:37.864Z,101305.06
2022-10-17T07:26:08.207Z,101303.31
2022-10-17T07:28:39.157Z,101312.56
2022-10-17T07:31:20.296Z,101321.22
2022-10-17T07:33:47.673Z,101296.06
2022-10-17T07:36:15.592Z,101301.81
2022-10-17T07:38:43.327Z,101301.75
2022-10-17T07:41:16.556Z,101312.06
2022-10-17T07:43:47.107Z,101308.50
2022-10-17T07:46:16.629Z,101312.53
2022-10-17T07:48:45.051Z,101307.94
2022-10-17T07:51:12.658Z,101311.09
2022-10-17T07:53:42.679Z,101307.03
2022-10-17T07:56:12.752Z,101296.31
2022-10-17T07:58:40.275Z,101305.00
2022-10-17T08:01:15.697Z,101309.56
2022-10-17T08:03:48.788Z,101321.13
2022-10-17T08:06:19.357Z,101322.50
2022-10-17T08:08:46.683Z,101321.50
2022-10-17T08:11:17.089Z,101317.09
2022-10-17T08:13:44.385Z,101312.06
2022-10-17T08:16:14.455Z,101306.91
2022-10-17T08:18:43.496Z,101315.13
2022-10-17T08:21:13.451Z,101322.13
2022-10-17T08:23:41.474Z,101317.69
2022-10-17T08:26:14.394Z,101309.78
2022-10-17T08:28:41.860Z,101311.16
2022-10-17T08:31:19.790Z,101310.53
2022-10-17T08:33:48.578Z,101305.19
2022-10-17T08:36:19.235Z,101300.13
2022-10-17T08:38:52.764Z,101309.66
2022-10-17T08:41:29.664Z,101297.22
2022-10-17T08:44:11.878Z,101297.41
2022-10-17T08:46:47.043Z,101299.25
2022-10-17T08:49:47.099Z,101294.06
2022-10-17T08:52:45.218Z,101285.47
2022-10-17T08:55:44.622Z,101290.59
2022-10-17T08:58:26.145Z,101296.25
2022-10-17T09:01:26.248Z,101287.78
2022-10-17T09:04:15.405Z,101296.09
2022-10-17T09:07:09.267Z,101289.41
2022-10-17T09:10:03.603Z,101288.53
2022-10-17T09:12:44.840Z,101299.16
2022-10-17T09:15:31.018Z,101299.66
2022-10-17T09:18:28.324Z,101292.50
2022-10-17T09:21:11.665Z,101285.88
2022-10-17T09:23:47.441Z,101285.19
2022-10-17T09:26:15.581Z,101281.69
2022-10-17T09:28:43.944Z,101281.50
2022-10-17T09:31:13.926Z,101286.69
2022-10-17T09:33:54.380Z,101278.09
2022-10-17T09:36:34.443Z,101287.44
2022-10-17T09:39:05.086Z,101274.69
2022-10-17T09:41:46.832Z,101279.69
2022-10-17T09:44:17.252Z,101271.81
2022-10-17T09:47:14.220Z,101266.38
2022-10-17T09:49:43.918Z,101280.47
2022-10-17T09:52:27.372Z,101280.69
2022-10-17T09:54:58.311Z,101294.69
2022-10-17T09:57:26.454Z,101290.94
2022-10-17T10:00:00.146Z,101274.69
2022-10-17T10:02:30.626Z,101279.28
2022-10-17T10:05:06.454Z,101293.88
2022-10-17T10:07:39.310Z,101279.41
2022-10-17T10:10:23.196Z,101269.16
2022-10-17T10:13:15.915Z,101267.41
2022-10-17T10:15:46.140Z,101276.72
2022-10-17T10:18:25.880Z,101278.94
2022-10-17T10:21:16.241Z,101277.81
2022-10-17T10:23:45.550Z,101267.19
2022-10-17T10:26:25.894Z,101265.00
2022-10-17T10:28:53.406Z,101257.53
2022-10-17T10:31:28.809Z,101259.25
2022-10-17T10:33:57.730Z,101254.06
2022-10-17T10:36:25.046Z,101260.13
2022-10-17T10:38:57.674Z,101267.06
2022-10-17T10:41:27.878Z,101271.47
2022-10-17T10:43:56.508Z,101262.66
2022-10-17T10:46:28.405Z,101258.22
2022-10-17T10:48:59.773Z,101252.00
2022-10-17T10:51:41.194Z,101259.03
2022-10-17T10:54:21.765Z,101253.38
2022-10-17T10:56:54.898Z,101249.53
2022-10-17T10:59:51.834Z,101248.88
2022-10-17T11:02:40.502Z,101245.97
2022-10-17T11:05:43.077Z,101241.28
2022-10-17T11:08:34.612Z,101234.69
2022-10-17T11:11:17.883Z,101237.19
2022-10-17T11:14:08.065Z,101240.16
2022-10-17T11:16:42.262Z,101230.09
2022-10-17T11:19:15.193Z,101223.66
2022-10-17T11:21:56.920Z,101218.88
2022-10-17T11:24:28.250Z,101212.75
2022-10-17T11:27:05.930Z,101206.56
2022-10-17T11:29:36.348Z,101199.44
2022-10-17T11:32:11.376Z,101183.31
2022-10-17T11:34:45.502Z,101192.94
2022-10-17T11:37:22.013Z,101201.00
2022-10-17T11:39:56.711Z,101188.53
2022-10-17T11:42:30.470Z,101190.53
2022-10-17T11:45:04.803Z,101188.13
2022-10-17T11:47:45.094Z,101188.03
2022-10-17T11:53:21.987Z,101172.63
2022-10-17T11:55:51.896Z,101173.69
2022-10-17T11:58:40.979Z,101168.22
2022-10-17T12:01:08.437Z,101167.84
2022-10-17T12:03:47.764Z,101155.84
2022-10-17T12:06:40.171Z,101165.06
2022-10-17T12:09:37.238Z,101173.47
2022-10-17T12:12:04.936Z,101157.75
2022-10-17T12:14:47.522Z,101178.56
2022-10-17T12:17:34.913Z,101170.72
2022-10-17T12:20:27.594Z,101156.97
2022-10-17T12:23:10.984Z,101162.81
2022-10-17T12:25:48.429Z,101158.63
2022-10-17T12:28:39.531Z,101154.16
2022-10-17T12:31:13.192Z,101156.50
2022-10-17T12:33:46.661Z,101153.53
2022-10-17T12:36:25.943Z,101142.03
2022-10-17T12:39:02.374Z,101139.53
2022-10-17T12:41:38.916Z,101139.66
2022-10-17T12:44:15.550Z,101126.22
2022-10-17T12:46:51.964Z,101110.09
2022-10-17T12:49:40.746Z,101117.56
2022-10-17T12:52:30.035Z,101098.91
2022-10-17T12:55:18.313Z,101098.19
2022-10-17T12:58:08.399Z,101100.91
2022-10-17T13:01:18.872Z,101102.78
2022-10-17T13:03:49.232Z,101074.94
2022-10-17T13:06:22.456Z,101070.88
2022-10-17T13:09:04.144Z,101063.56
2022-10-17T13:11:36.289Z,101070.72
2022-10-17T13:14:12.514Z,101084.81
2022-10-17T13:17:02.208Z,101068.31
2022-10-17T13:19:44.762Z,101078.00
2022-10-17T13:22:17.489Z,101072.03
2022-10-17T13:24:45.644Z,101067.66
2022-10-17T13:27:33.377Z,101058.28
2022-10-17T13:30:03.638Z,101065.59
2022-10-17T13:32:39.716Z,101067.13
2022-10-17T13:35:17.217Z,101063.56
2022-10-17T13:37:51.547Z,101055.25
2022-10-17T13:40:44.609Z,101051.50
2022-10-17T13:43:19.943Z,101037.56
2022-10-17T13:45:51.641Z,101032.47
2022-10-17T13:48:30.106Z,101028.88
2022-10-17T13:51:02.809Z,101026.69
2022-10-17T13:53:40.009Z,101018.34
2022-10-17T13:56:34.713Z,101021.03
2022-10-17T13:59:17.498Z,101003.31
2022-10-17T14:01:45.290Z,100996.88
2022-10-17T14:04:19.759Z,100994.72
2022-10-17T14:06:51.120Z,100996.72
2022-10-17T14:09:25.924Z,100992.16
2022-10-17T14:12:02.638Z,100993.63
2022-10-17T14:14:41.675Z,100995.22
2022-10-17T14:17:25.298Z,100991.09
2022-10-17T14:20:34.070Z,100993.00
2022-10-17T14:23:04.504Z,100982.13
2022-10-17T14:25:37.456Z,100991.81
2022-10-17T14:28:09.579Z,100987.72
2022-10-17T14:30:56.685Z,100974.66
2022-10-17T14:33:29.024Z,100975.84
2022-10-17T14:35:58.588Z,100977.91
2022-10-17T14:38:27.750Z,100968.22
2022-10-17T14:43:59.746Z,100967.19
2022-10-17T14:46:27.932Z,100966.38
2022-10-17T14:49:02.563Z,100976.72
2022-10-17T14:51:39.953Z,100983.00
2022-10-17T14:54:27.396Z,100972.16
2022-10-17T14:56:55.019Z,100971.31
2022-10-17T14:59:51.503Z,100973.00
2022-10-17T15:02:12.245Z,100964.19
2022-10-17T15:04:39.628Z,100967.06
2022-10-17T15:07:06.892Z,100958.75
2022-10-17T15:09:34.330Z,100962.66
2022-10-17T15:12:04.232Z,100965.22
2022-10-17T15:14:31.740Z,100955.19
2022-10-17T15:16:58.917Z,100955.38
2022-10-17T15:19:30.824Z,100955.88
2022-10-17T15:22:10.104Z,100948.44
2022-10-17T15:25:03.768Z,100957.44
2022-10-17T15:27:38.828Z,100943.16
2022-10-17T15:30:29.178Z,100937.41
2022-10-17T15:33:08.759Z,100941.66
2022-10-17T15:35:50.931Z,100945.03
2022-10-17T15:38:31.245Z,100937.03
2022-10-17T15:41:14.668Z,100937.72
2022-10-17T15:43:46.271Z,100938.22
2022-10-17T15:46:32.246Z,100944.50
2022-10-17T15:49:12.431Z,100939.91
2022-10-17T15:51:49.329Z,100942.00
2022-10-17T15:54:21.528Z,100952.34
2022-10-17T15:56:54.119Z,100943.34
2022-10-17T15:59:24.445Z,100940.28
2022-10-17T16:01:52.098Z,100942.44
2022-10-17T16:04:19.293Z,100931.63
2022-10-17T16:06:46.689Z,100943.16
2022-10-17T16:09:13.882Z,100932.09
2022-10-17T16:11:43.412Z,100923.28
2022-10-17T16:14:13.379Z,100937.69
2022-10-17T16:16:40.940Z,100929.56
2022-10-17T16:19:08.855Z,100921.94
2022-10-17T16:21:39.076Z,100928.03
2022-10-17T16:24:06.516Z,100929.38
2022-10-17T16:26:33.949Z,100919.56
2022-10-17T16:29:03.540Z,100912.59
2022-10-17T16:31:34.051Z,100914.63
2022-10-17T16:34:02.895Z,100917.69
2022-10-17T16:36:30.574Z,100913.78
2022-10-17T16:38:58.257Z,100911.06
2022-10-17T16:41:39.598Z,100910.72
2022-10-17T16:44:09.184Z,100908.53
2022-10-17T16:46:37.735Z,100910.88
2022-10-17T16:49:05.573Z,100905.31
2022-10-17T16:51:36.736Z,100901.38
2022-10-17T16:54:04.701Z,100899.34
2022-10-17T16:56:33.021Z,100889.69
2022-10-17T16:59:01.368Z,100900.22
2022-10-17T17:01:32.112Z,100892.41
2022-10-17T17:03:59.359Z,100894.75
2022-10-17T17:06:29.305Z,100875.78
2022-10-17T17:08:57.575Z,100888.34
2022-10-17T17:11:27.325Z,100881.53
2022-10-17T17:13:59.073Z,100882.72
2022-10-17T17:16:27.607Z,100866.63
2022-10-17T17:19:00.559Z,100861.34
2022-10-17T17:21:28.048Z,100853.72
2022-10-17T17:23:58.853Z,100864.56
2022-10-17T17:26:29.769Z,100863.38
2022-10-17T17:28:59.276Z,100859.84
2022-10-17T17:31:29.469Z,100858.66
2022-10-17T17:33:57.757Z,100849.13
2022-10-17T17:36:30.982Z,100859.50
2022-10-17T17:39:00.368Z,100852.00
2022-10-17T17:41:28.490Z,100841.16
2022-10-17T17:43:56.209Z,100835.56
2022-10-17T17:46:24.897Z,100846.59
2022-10-17T17:48:53.651Z,100842.19
2022-10-17T17:51:28.451Z,100839.28
2022-10-17T17:53:59.664Z,100850.84
2022-10-17T17:56:29.002Z,100831.81
2022-10-17T17:59:01.273Z,100837.09
2022-10-17T18:01:35.234Z,100832.47
2022-10-17T18:04:04.643Z,100832.13
2022-10-17T18:06:32.032Z,100833.47
2022-10-17T18:08:59.497Z,100832.47
2022-10-17T18:11:27.736Z,100822.44
2022-10-17T18:13:57.434Z,100826.84
2022-10-17T18:16:26.338Z,100823.47
2022-10-17T18:18:53.899Z,100826.69
2022-10-17T18:21:22.011Z,100816.53
2022-10-17T18:23:49.739Z,100814.81
2022-10-17T18:26:17.599Z,100812.94
2022-10-17T18:28:45.090Z,100812.22
2022-10-17T18:31:35.645Z,100808.81
2022-10-17T18:34:04.785Z,100808.44
2022-10-17T18:36:33.667Z,100816.06
2022-10-17T18:39:02.138Z,100806.34
2022-10-17T18:41:30.121Z,100822.09
2022-10-17T18:43:58.040Z,100802.03
2022-10-17T18:46:29.037Z,100808.97
2022-10-17T18:48:56.541Z,100811.53
2022-10-17T18:51:25.932Z,100810.00
2022-10-17T18:53:55.289Z,100807.59
2022-10-17T18:56:23.463Z,100805.34
2022-10-17T18:58:51.041Z,100794.97
2022-10-17T19:01:20.922Z,100808.03
2022-10-17T19:03:49.702Z,100810.03
2022-10-17T19:06:20.662Z,100801.53
2022-10-17T19:08:48.546Z,100819.34
2022-10-17T19:11:19.056Z,100810.84
2022-10-17T19:13:47.554Z,100796.22
2022-10-17T19:16:17.695Z,100795.19
2022-10-17T19:18:52.615Z,100794.81
2022-10-17T19:21:21.954Z,100808.72
2022-10-17T19:24:00.507Z,100794.69
2022-10-17T19:26:30.460Z,100802.84
2022-10-17T19:29:00.397Z,100813.00
2022-10-17T19:31:31.718Z,100789.63
2022-10-17T19:33:59.939Z,100791.38
2022-10-17T19:36:33.263Z,100783.88
2022-10-17T19:39:04.522Z,100794.38
2022-10-17T19:41:32.836Z,100780.56
2022-10-17T19:44:00.663Z,100794.09
2022-10-17T19:46:29.726Z,100787.50
2022-10-17T19:48:57.454Z,100789.09
2022-10-17T19:51:26.396Z,100787.22
2022-10-17T19:53:55.634Z,100786.91
2022-10-17T19:56:25.006Z,100773.13
2022-10-17T19:58:54.440Z,100785.41
2022-10-17T20:01:27.401Z,100788.13
2022-10-17T20:03:55.450Z,100789.09
2022-10-17T20:06:23.745Z,100787.50
2022-10-17T20:08:51.496Z,100780.75
2022-10-17T20:11:25.435Z,100784.53
2022-10-17T20:13:54.059Z,100785.19
2022-10-17T20:16:24.386Z,100784.34
2022-10-17T20:18:54.702Z,100782.00
2022-10-17T20:21:27.285Z,100784.53
2022-10-17T20:23:54.971Z,100787.56
2022-10-17T20:26:37.049Z,100786.03
2022-10-17T20:29:10.832Z,100785.56
2022-10-17T20:31:40.019Z,100786.22
2022-10-17T20:34:07.255Z,100784.25
2022-10-17T20:36:37.505Z,100790.16
2022-10-17T20:39:06.036Z,100799.72
2022-10-17T20:41:33.881Z,100798.22
2022-10-17T20:44:01.294Z,100802.53
2022-10-17T20:46:36.964Z,100798.56
2022-10-17T20:49:06.395Z,100803.13
2022-10-17T20:51:34.823Z,100789.88
2022-10-17T20:54:03.128Z,100789.75
2022-10-17T20:56:32.258Z,100793.53
2022-10-17T20:59:05.653Z,100793.56
2022-10-17T21:01:34.707Z,100789.06
2022-10-17T21:04:21.239Z,100791.66
2022-10-17T21:06:51.349Z,100780.63
2022-10-17T21:09:18.925Z,100792.56
2022-10-17T21:11:46.382Z,100786.81
2022-10-17T21:14:16.750Z,100792.91
2022-10-17T21:16:44.258Z,100787.91
2022-10-17T21:19:12.321Z,100782.53
2022-10-17T21:21:42.484Z,100788.16
2022-10-17T21:24:16.868Z,100774.72
2022-10-17T21:26:45.723Z,100790.22
2022-10-17T21:29:14.004Z,100797.16
2022-10-17T21:31:44.168Z,100798.38
2022-10-17T21:34:14.152Z,100791.53
2022-10-17T21:36:42.164Z,100791.97
2022-10-17T21:39:11.199Z,100789.72
2022-10-17T21:41:38.756Z,100780.06
2022-10-17T21:44:14.934Z,100794.88
2022-10-17T21:46:43.552Z,100787.25
2022-10-17T21:49:16.049Z,100801.38
2022-10-17T21:51:44.789Z,100793.88
2022-10-17T21:54:12.294Z,100807.22
2022-10-17T21:56:40.245Z,100797.66
2022-10-17T21:59:07.883Z,100800.72
2022-10-17T22:01:38.667Z,100800.41
2022-10-17T22:04:08.924Z,100793.28
2022-10-17T22:06:40.114Z,100800.78
2022-10-17T22:09:10.047Z,100794.38
2022-10-17T22:11:37.573Z,100797.09
2022-10-17T22:14:12.588Z,100798.28
2022-10-17T22:16:40.972Z,100805.84
2022-10-17T22:19:08.884Z,100811.25
2022-10-17T22:21:37.573Z,100808.91
2022-10-17T22:24:10.381Z,100808.19
2022-10-17T22:26:38.313Z,100808.75
2022-10-17T22:29:07.233Z,100814.75
2022-10-17T22:31:35.279Z,100809.19
2022-10-17T22:34:05.103Z,100807.19
2022-10-17T22:36:33.891Z,100804.09
2022-10-17T22:39:01.434Z,100810.72
2022-10-17T22:41:29.001Z,100803.75
2022-10-17T22:43:56.461Z,100796.69
2022-10-17T22:46:24.173Z,100807.84
2022-10-17T22:48:51.377Z,100804.97
2022-10-17T22:51:18.850Z,100816.53
2022-10-17T22:53:46.105Z,100810.88
2022-10-17T22:56:21.585Z,100809.53
2022-10-17T22:58:49.231Z,100799.53
2022-10-17T23:01:22.426Z,100807.88
2022-10-17T23:03:50.976Z,100813.09
2022-10-17T23:06:18.910Z,100809.53
2022-10-17T23:08:46.225Z,100808.19
2022-10-17T23:11:14.027Z,100812.28
2022-10-17T23:13:41.549Z,100818.38
2022-10-17T23:16:09.231Z,100825.47
2022-10-17T23:18:38.061Z,100808.38
2022-10-17T23:21:06.721Z,100815.16
2022-10-17T23:23:34.031Z,100823.47
2022-10-17T23:26:12.884Z,100824.69
2022-10-17T23:28:42.483Z,100829.25
2022-10-17T23:31:20.958Z,100826.91
2022-10-17T23:33:49.759Z,100822.97
2022-10-17T23:36:19.726Z,100821.44
2022-10-17T23:38:48.262Z,100830.13
2022-10-17T23:41:16.391Z,100829.09
2022-10-17T23:43:44.040Z,100835.22
2022-10-17T23:46:12.395Z,100820.47
2022-10-17T23:48:40.358Z,100828.59
2022-10-17T23:51:09.074Z,100823.16
2022-10-17T23:53:37.611Z,100818.44
2022-10-17T23:56:06.193Z,100832.69
2022-10-17T23:58:33.746Z,100830.81
